sensor_id;sensor_type;location;lat;lon;timestamp;temperature;humidity
73133;DHT22;61320;52.008;4.530;2023-04-07T00:00:17;10.33;83.47
73133;DHT22;61320;52.008;4.530;2023-04-07T00:02:43;10.30;83.93
73133;DHT22;61320;52.008;4.530;2023-04-07T00:05:08;10.34;84.02
73133;DHT22;61320;52.008;4.530;2023-04-07T00:07:34;10.33;83.73
73133;DHT22;61320;52.008;4.530;2023-04-07T00:09:59;10.33;83.70
73133;DHT22;61320;52.008;4.530;2023-04-07T00:12:25;10.33;83.98
73133;DHT22;61320;52.008;4.530;2023-04-07T00:14:50;10.33;83.88
73133;DHT22;61320;52.008;4.530;2023-04-07T00:17:16;10.34;83.82
73133;DHT22;61320;52.008;4.530;2023-04-07T00:19:42;10.32;83.57
73133;DHT22;61320;52.008;4.530;2023-04-07T00:22:08;10.30;83.68
73133;DHT22;61320;52.008;4.530;2023-04-07T00:24:34;10.29;83.87
73133;DHT22;61320;52.008;4.530;2023-04-07T00:27:00;10.30;83.88
73133;DHT22;61320;52.008;4.530;2023-04-07T00:29:25;10.26;83.87
73133;DHT22;61320;52.008;4.530;2023-04-07T00:31:51;10.26;83.84
73133;DHT22;61320;52.008;4.530;2023-04-07T00:34:16;10.23;83.60
73133;DHT22;61320;52.008;4.530;2023-04-07T00:36:42;10.20;83.61
73133;DHT22;61320;52.008;4.530;2023-04-07T00:39:07;10.18;83.64
73133;DHT22;61320;52.008;4.530;2023-04-07T00:41:33;10.16;83.61
73133;DHT22;61320;52.008;4.530;2023-04-07T00:44:00;10.13;83.52
73133;DHT22;61320;52.008;4.530;2023-04-07T00:46:25;10.09;83.56
73133;DHT22;61320;52.008;4.530;2023-04-07T00:48:51;10.03;83.49
73133;DHT22;61320;52.008;4.530;2023-04-07T00:51:20;9.99;83.42
73133;DHT22;61320;52.008;4.530;2023-04-07T00:53:47;9.95;83.35
73133;DHT22;61320;52.008;4.530;2023-04-07T00:56:13;9.88;83.24
73133;DHT22;61320;52.008;4.530;2023-04-07T00:58:39;9.85;83.26
73133;DHT22;61320;52.008;4.530;2023-04-07T01:01:32;9.75;83.11
73133;DHT22;61320;52.008;4.530;2023-04-07T01:07:03;9.62;83.11
73133;DHT22;61320;52.008;4.530;2023-04-07T01:09:36;9.54;82.99
73133;DHT22;61320;52.008;4.530;2023-04-07T01:12:17;9.49;83.13
73133;DHT22;61320;52.008;4.530;2023-04-07T01:14:53;9.48;83.13
73133;DHT22;61320;52.008;4.530;2023-04-07T01:17:24;9.41;83.19
73133;DHT22;61320;52.008;4.530;2023-04-07T01:20:01;9.35;83.11
73133;DHT22;61320;52.008;4.530;2023-04-07T01:22:52;9.27;83.03
73133;DHT22;61320;52.008;4.530;2023-04-07T01:30:39;9.11;83.19
73133;DHT22;61320;52.008;4.530;2023-04-07T01:33:07;9.08;83.29
73133;DHT22;61320;52.008;4.530;2023-04-07T01:35:36;9.07;83.36
73133;DHT22;61320;52.008;4.530;2023-04-07T01:38:02;9.08;83.43
73133;DHT22;61320;52.008;4.530;2023-04-07T01:40:29;9.04;83.31
73133;DHT22;61320;52.008;4.530;2023-04-07T01:42:59;9.07;83.59
73133;DHT22;61320;52.008;4.530;2023-04-07T01:45:26;9.06;83.73
73133;DHT22;61320;52.008;4.530;2023-04-07T01:47:54;9.13;83.88
73133;DHT22;61320;52.008;4.530;2023-04-07T01:50:21;9.16;83.98
73133;DHT22;61320;52.008;4.530;2023-04-07T01:52:48;9.18;83.99
73133;DHT22;61320;52.008;4.530;2023-04-07T01:55:14;9.20;83.78
73133;DHT22;61320;52.008;4.530;2023-04-07T01:57:39;9.20;83.81
73133;DHT22;61320;52.008;4.530;2023-04-07T02:00:05;9.24;83.67
73133;DHT22;61320;52.008;4.530;2023-04-07T02:02:35;9.26;83.91
73133;DHT22;61320;52.008;4.530;2023-04-07T02:05:10;9.27;83.76
73133;DHT22;61320;52.008;4.530;2023-04-07T02:07:52;9.27;83.93
73133;DHT22;61320;52.008;4.530;2023-04-07T02:10:22;9.32;84.18
73133;DHT22;61320;52.008;4.530;2023-04-07T02:12:51;9.35;83.76
73133;DHT22;61320;52.008;4.530;2023-04-07T02:15:18;9.38;84.04
73133;DHT22;61320;52.008;4.530;2023-04-07T02:17:47;9.39;84.06
73133;DHT22;61320;52.008;4.530;2023-04-07T02:20:15;9.44;83.80
73133;DHT22;61320;52.008;4.530;2023-04-07T02:22:42;9.47;83.92
73133;DHT22;61320;52.008;4.530;2023-04-07T02:25:28;9.47;83.75
73133;DHT22;61320;52.008;4.530;2023-04-07T02:27:55;9.47;83.77
73133;DHT22;61320;52.008;4.530;2023-04-07T02:30:21;9.47;83.52
73133;DHT22;61320;52.008;4.530;2023-04-07T02:32:47;9.45;83.37
73133;DHT22;61320;52.008;4.530;2023-04-07T02:35:14;9.42;83.66
73133;DHT22;61320;52.008;4.530;2023-04-07T02:37:40;9.44;83.67
73133;DHT22;61320;52.008;4.530;2023-04-07T02:40:06;9.48;83.73
73133;DHT22;61320;52.008;4.530;2023-04-07T02:42:31;9.44;83.81
73133;DHT22;61320;52.008;4.530;2023-04-07T02:44:58;9.45;83.92
73133;DHT22;61320;52.008;4.530;2023-04-07T02:47:24;9.48;83.82
73133;DHT22;61320;52.008;4.530;2023-04-07T02:49:49;9.52;83.88
73133;DHT22;61320;52.008;4.530;2023-04-07T02:52:15;9.57;83.83
73133;DHT22;61320;52.008;4.530;2023-04-07T02:54:41;9.61;84.02
73133;DHT22;61320;52.008;4.530;2023-04-07T02:57:07;9.59;84.16
73133;DHT22;61320;52.008;4.530;2023-04-07T02:59:32;9.65;83.87
73133;DHT22;61320;52.008;4.530;2023-04-07T03:01:58;9.69;84.32
73133;DHT22;61320;52.008;4.530;2023-04-07T03:04:23;9.72;83.98
73133;DHT22;61320;52.008;4.530;2023-04-07T03:06:50;9.75;84.32
73133;DHT22;61320;52.008;4.530;2023-04-07T03:09:16;9.81;84.16
73133;DHT22;61320;52.008;4.530;2023-04-07T03:11:41;9.79;84.13
73133;DHT22;61320;52.008;4.530;2023-04-07T03:14:07;9.85;84.18
73133;DHT22;61320;52.008;4.530;2023-04-07T03:16:32;9.89;83.77
73133;DHT22;61320;52.008;4.530;2023-04-07T03:18:57;9.86;83.77
73133;DHT22;61320;52.008;4.530;2023-04-07T03:21:23;9.89;83.87
73133;DHT22;61320;52.008;4.530;2023-04-07T03:23:48;9.92;84.07
73133;DHT22;61320;52.008;4.530;2023-04-07T03:26:14;9.95;83.95
73133;DHT22;61320;52.008;4.530;2023-04-07T03:28:40;9.97;83.95
73133;DHT22;61320;52.008;4.530;2023-04-07T03:31:05;10.02;83.90
73133;DHT22;61320;52.008;4.530;2023-04-07T03:33:31;10.00;83.66
73133;DHT22;61320;52.008;4.530;2023-04-07T03:35:56;10.03;84.03
73133;DHT22;61320;52.008;4.530;2023-04-07T03:38:22;10.05;83.68
73133;DHT22;61320;52.008;4.530;2023-04-07T03:40:47;10.03;83.86
73133;DHT22;61320;52.008;4.530;2023-04-07T03:43:13;10.06;83.86
73133;DHT22;61320;52.008;4.530;2023-04-07T03:45:42;10.07;83.88
73133;DHT22;61320;52.008;4.530;2023-04-07T03:48:08;10.10;83.76
73133;DHT22;61320;52.008;4.530;2023-04-07T03:50:37;10.12;83.84
73133;DHT22;61320;52.008;4.530;2023-04-07T03:53:03;10.13;83.65
73133;DHT22;61320;52.008;4.530;2023-04-07T03:55:29;10.14;83.57
73133;DHT22;61320;52.008;4.530;2023-04-07T03:57:54;10.14;83.48
73133;DHT22;61320;52.008;4.530;2023-04-07T04:00:20;10.17;83.81
73133;DHT22;61320;52.008;4.530;2023-04-07T04:02:45;10.18;83.70
73133;DHT22;61320;52.008;4.530;2023-04-07T04:05:11;10.21;83.69
73133;DHT22;61320;52.008;4.530;2023-04-07T04:07:36;10.20;83.48
73133;DHT22;61320;52.008;4.530;2023-04-07T04:10:02;10.24;83.71
73133;DHT22;61320;52.008;4.530;2023-04-07T04:12:27;10.27;83.58
73133;DHT22;61320;52.008;4.530;2023-04-07T04:14:53;10.24;83.63
73133;DHT22;61320;52.008;4.530;2023-04-07T04:17:18;10.29;83.42
73133;DHT22;61320;52.008;4.530;2023-04-07T04:19:43;10.24;83.49
73133;DHT22;61320;52.008;4.530;2023-04-07T04:22:09;10.29;83.64
73133;DHT22;61320;52.008;4.530;2023-04-07T04:24:35;10.29;83.45
73133;DHT22;61320;52.008;4.530;2023-04-07T04:27:00;10.29;83.32
73133;DHT22;61320;52.008;4.530;2023-04-07T04:29:26;10.26;83.29
73133;DHT22;61320;52.008;4.530;2023-04-07T04:31:51;10.24;83.16
73133;DHT22;61320;52.008;4.530;2023-04-07T04:34:17;10.24;83.43
73133;DHT22;61320;52.008;4.530;2023-04-07T04:36:42;10.27;83.18
73133;DHT22;61320;52.008;4.530;2023-04-07T04:39:08;10.26;83.32
73133;DHT22;61320;52.008;4.530;2023-04-07T04:41:33;10.24;83.33
73133;DHT22;61320;52.008;4.530;2023-04-07T04:43:59;10.27;83.12
73133;DHT22;61320;52.008;4.530;2023-04-07T04:46:24;10.29;83.38
73133;DHT22;61320;52.008;4.530;2023-04-07T04:48:50;10.29;83.27
73133;DHT22;61320;52.008;4.530;2023-04-07T04:51:17;10.24;82.97
73133;DHT22;61320;52.008;4.530;2023-04-07T04:53:42;10.24;83.16
73133;DHT22;61320;52.008;4.530;2023-04-07T04:56:08;10.20;83.35
73133;DHT22;61320;52.008;4.530;2023-04-07T04:58:34;10.23;83.15
73133;DHT22;61320;52.008;4.530;2023-04-07T05:00:59;10.21;82.78
73133;DHT22;61320;52.008;4.530;2023-04-07T05:03:27;10.18;83.12
73133;DHT22;61320;52.008;4.530;2023-04-07T05:05:53;10.23;83.11
73133;DHT22;61320;52.008;4.530;2023-04-07T05:08:18;10.23;82.92
73133;DHT22;61320;52.008;4.530;2023-04-07T05:10:45;10.23;82.95
73133;DHT22;61320;52.008;4.530;2023-04-07T05:13:11;10.21;82.78
73133;DHT22;61320;52.008;4.530;2023-04-07T05:15:36;10.23;83.12
73133;DHT22;61320;52.008;4.530;2023-04-07T05:18:02;10.23;82.54
73133;DHT22;61320;52.008;4.530;2023-04-07T05:20:27;10.23;82.47
73133;DHT22;61320;52.008;4.530;2023-04-07T05:22:53;10.23;82.99
73133;DHT22;61320;52.008;4.530;2023-04-07T05:25:18;10.24;83.19
73133;DHT22;61320;52.008;4.530;2023-04-07T05:27:44;10.26;83.05
73133;DHT22;61320;52.008;4.530;2023-04-07T05:30:09;10.27;83.21
73133;DHT22;61320;52.008;4.530;2023-04-07T05:32:35;10.32;83.14
73133;DHT22;61320;52.008;4.530;2023-04-07T05:35:01;10.32;83.18
73133;DHT22;61320;52.008;4.530;2023-04-07T05:37:26;10.29;82.94
73133;DHT22;61320;52.008;4.530;2023-04-07T05:39:52;10.32;82.91
73133;DHT22;61320;52.008;4.530;2023-04-07T05:42:17;10.36;82.85
73133;DHT22;61320;52.008;4.530;2023-04-07T05:44:43;10.38;82.52
73133;DHT22;61320;52.008;4.530;2023-04-07T05:47:08;10.38;82.57
73133;DHT22;61320;52.008;4.530;2023-04-07T05:49:35;10.38;82.75
73133;DHT22;61320;52.008;4.530;2023-04-07T05:52:01;10.43;82.49
73133;DHT22;61320;52.008;4.530;2023-04-07T05:54:28;10.44;82.85
73133;DHT22;61320;52.008;4.530;2023-04-07T05:56:54;10.47;82.59
73133;DHT22;61320;52.008;4.530;2023-04-07T05:59:20;10.48;82.53
73133;DHT22;61320;52.008;4.530;2023-04-07T06:01:46;10.44;82.17
73133;DHT22;61320;52.008;4.530;2023-04-07T06:04:11;10.46;81.97
73133;DHT22;61320;52.008;4.530;2023-04-07T06:06:37;10.46;82.16
73133;DHT22;61320;52.008;4.530;2023-04-07T06:09:02;10.46;81.78
73133;DHT22;61320;52.008;4.530;2023-04-07T06:11:28;10.44;81.86
73133;DHT22;61320;52.008;4.530;2023-04-07T06:13:53;10.46;81.67
73133;DHT22;61320;52.008;4.530;2023-04-07T06:16:18;10.47;82.11
73133;DHT22;61320;52.008;4.530;2023-04-07T06:18:44;10.47;81.65
73133;DHT22;61320;52.008;4.530;2023-04-07T06:21:09;10.48;81.29
73133;DHT22;61320;52.008;4.530;2023-04-07T06:23:35;10.50;82.04
73133;DHT22;61320;52.008;4.530;2023-04-07T06:26:00;10.55;82.46
73133;DHT22;61320;52.008;4.530;2023-04-07T06:28:26;10.61;82.68
73133;DHT22;61320;52.008;4.530;2023-04-07T06:30:52;10.67;81.89
73133;DHT22;61320;52.008;4.530;2023-04-07T06:33:17;10.72;81.66
73133;DHT22;61320;52.008;4.530;2023-04-07T06:35:43;10.69;81.57
73133;DHT22;61320;52.008;4.530;2023-04-07T06:38:09;10.69;81.37
73133;DHT22;61320;52.008;4.530;2023-04-07T06:40:36;10.74;81.73
73133;DHT22;61320;52.008;4.530;2023-04-07T06:43:01;10.81;81.36
73133;DHT22;61320;52.008;4.530;2023-04-07T06:45:28;10.84;80.59
73133;DHT22;61320;52.008;4.530;2023-04-07T06:47:53;10.77;80.67
73133;DHT22;61320;52.008;4.530;2023-04-07T06:50:19;10.75;81.06
73133;DHT22;61320;52.008;4.530;2023-04-07T06:52:46;10.77;81.32
73133;DHT22;61320;52.008;4.530;2023-04-07T06:55:12;10.78;81.83
73133;DHT22;61320;52.008;4.530;2023-04-07T06:57:37;10.78;81.41
73133;DHT22;61320;52.008;4.530;2023-04-07T07:00:03;10.77;81.36
73133;DHT22;61320;52.008;4.530;2023-04-07T07:02:32;10.75;80.92
73133;DHT22;61320;52.008;4.530;2023-04-07T07:04:58;10.75;80.79
73133;DHT22;61320;52.008;4.530;2023-04-07T07:07:23;10.69;81.06
73133;DHT22;61320;52.008;4.530;2023-04-07T07:09:50;10.75;81.08
73133;DHT22;61320;52.008;4.530;2023-04-07T07:12:16;10.78;81.58
73133;DHT22;61320;52.008;4.530;2023-04-07T07:14:42;10.84;80.51
73133;DHT22;61320;52.008;4.530;2023-04-07T07:17:08;10.88;80.41
73133;DHT22;61320;52.008;4.530;2023-04-07T07:19:34;10.89;80.62
73133;DHT22;61320;52.008;4.530;2023-04-07T07:22:00;10.89;80.93
73133;DHT22;61320;52.008;4.530;2023-04-07T07:24:28;10.92;80.44
73133;DHT22;61320;52.008;4.530;2023-04-07T07:26:55;10.98;80.50
73133;DHT22;61320;52.008;4.530;2023-04-07T07:29:21;10.94;80.45
73133;DHT22;61320;52.008;4.530;2023-04-07T07:31:47;10.95;79.88
73133;DHT22;61320;52.008;4.530;2023-04-07T07:34:13;11.02;79.66
73133;DHT22;61320;52.008;4.530;2023-04-07T07:36:38;11.01;79.30
73133;DHT22;61320;52.008;4.530;2023-04-07T07:39:04;11.04;79.92
73133;DHT22;61320;52.008;4.530;2023-04-07T07:42:02;11.05;79.43
73133;DHT22;61320;52.008;4.530;2023-04-07T07:44:28;11.05;79.49
73133;DHT22;61320;52.008;4.530;2023-04-07T07:46:53;11.01;79.14
73133;DHT22;61320;52.008;4.530;2023-04-07T07:49:19;10.96;79.29
73133;DHT22;61320;52.008;4.530;2023-04-07T07:51:45;10.96;79.64
73133;DHT22;61320;52.008;4.530;2023-04-07T07:54:11;10.98;79.67
73133;DHT22;61320;52.008;4.530;2023-04-07T07:56:37;11.02;78.39
73133;DHT22;61320;52.008;4.530;2023-04-07T07:59:03;11.06;79.68
73133;DHT22;61320;52.008;4.530;2023-04-07T08:01:30;11.09;79.07
73133;DHT22;61320;52.008;4.530;2023-04-07T08:03:56;11.06;78.68
73133;DHT22;61320;52.008;4.530;2023-04-07T08:06:21;11.12;79.02
73133;DHT22;61320;52.008;4.530;2023-04-07T08:08:47;11.18;78.75
73133;DHT22;61320;52.008;4.530;2023-04-07T08:11:13;11.22;78.23
73133;DHT22;61320;52.008;4.530;2023-04-07T08:13:38;11.26;77.55
73133;DHT22;61320;52.008;4.530;2023-04-07T08:16:04;11.26;78.30
73133;DHT22;61320;52.008;4.530;2023-04-07T08:18:31;11.29;78.24
73133;DHT22;61320;52.008;4.530;2023-04-07T08:20:56;11.27;78.22
73133;DHT22;61320;52.008;4.530;2023-04-07T08:23:22;11.35;77.54
73133;DHT22;61320;52.008;4.530;2023-04-07T08:25:50;11.35;77.07
73133;DHT22;61320;52.008;4.530;2023-04-07T08:28:18;11.39;77.51
73133;DHT22;61320;52.008;4.530;2023-04-07T08:30:45;11.40;77.55
73133;DHT22;61320;52.008;4.530;2023-04-07T08:33:10;11.42;77.25
73133;DHT22;61320;52.008;4.530;2023-04-07T08:35:39;11.47;77.69
73133;DHT22;61320;52.008;4.530;2023-04-07T08:38:24;11.46;77.89
73133;DHT22;61320;52.008;4.530;2023-04-07T08:41:03;11.52;77.48
73133;DHT22;61320;52.008;4.530;2023-04-07T08:43:56;11.53;77.69
73133;DHT22;61320;52.008;4.530;2023-04-07T08:46:49;11.56;77.41
73133;DHT22;61320;52.008;4.530;2023-04-07T08:49:32;11.64;76.72
73133;DHT22;61320;52.008;4.530;2023-04-07T08:52:41;11.62;76.42
73133;DHT22;61320;52.008;4.530;2023-04-07T08:55:08;11.50;76.60
73133;DHT22;61320;52.008;4.530;2023-04-07T08:57:48;11.50;77.78
73133;DHT22;61320;52.008;4.530;2023-04-07T09:00:33;11.50;77.52
73133;DHT22;61320;52.008;4.530;2023-04-07T09:03:07;11.46;77.61
73133;DHT22;61320;52.008;4.530;2023-04-07T09:05:34;11.50;77.53
73133;DHT22;61320;52.008;4.530;2023-04-07T09:08:03;11.42;76.29
73133;DHT22;61320;52.008;4.530;2023-04-07T09:10:29;11.43;76.73
73133;DHT22;61320;52.008;4.530;2023-04-07T09:12:57;11.46;76.66
73133;DHT22;61320;52.008;4.530;2023-04-07T09:15:25;11.50;75.70
73133;DHT22;61320;52.008;4.530;2023-04-07T09:17:50;11.47;76.69
73133;DHT22;61320;52.008;4.530;2023-04-07T09:20:16;11.50;76.12
73133;DHT22;61320;52.008;4.530;2023-04-07T09:22:43;11.52;76.63
73133;DHT22;61320;52.008;4.530;2023-04-07T09:25:15;11.62;75.98
73133;DHT22;61320;52.008;4.530;2023-04-07T09:28:02;11.70;77.00
73133;DHT22;61320;52.008;4.530;2023-04-07T09:30:32;11.71;75.80
73133;DHT22;61320;52.008;4.530;2023-04-07T09:32:59;11.81;75.75
73133;DHT22;61320;52.008;4.530;2023-04-07T09:35:25;11.85;76.34
73133;DHT22;61320;52.008;4.530;2023-04-07T09:38:06;11.87;75.73
73133;DHT22;61320;52.008;4.530;2023-04-07T09:40:35;11.85;75.06
73133;DHT22;61320;52.008;4.530;2023-04-07T09:43:13;11.94;75.52
73133;DHT22;61320;52.008;4.530;2023-04-07T09:45:39;12.01;75.32
73133;DHT22;61320;52.008;4.530;2023-04-07T09:48:05;12.06;74.11
73133;DHT22;61320;52.008;4.530;2023-04-07T09:50:34;12.08;74.65
73133;DHT22;61320;52.008;4.530;2023-04-07T09:53:01;12.10;73.98
73133;DHT22;61320;52.008;4.530;2023-04-07T09:55:28;12.08;73.61
73133;DHT22;61320;52.008;4.530;2023-04-07T09:57:56;12.10;73.94
73133;DHT22;61320;52.008;4.530;2023-04-07T10:00:23;12.14;73.82
73133;DHT22;61320;52.008;4.530;2023-04-07T10:02:49;12.18;74.40
73133;DHT22;61320;52.008;4.530;2023-04-07T10:05:18;12.28;74.81
73133;DHT22;61320;52.008;4.530;2023-04-07T10:07:47;12.36;74.09
73133;DHT22;61320;52.008;4.530;2023-04-07T10:10:13;12.36;74.15
73133;DHT22;61320;52.008;4.530;2023-04-07T10:12:40;12.35;73.30
73133;DHT22;61320;52.008;4.530;2023-04-07T11:37:29;12.60;71.68
73133;DHT22;61320;52.008;4.530;2023-04-07T11:39:56;12.63;72.15
73133;DHT22;61320;52.008;4.530;2023-04-07T11:42:36;12.56;72.89
73133;DHT22;61320;52.008;4.530;2023-04-07T11:45:02;12.57;72.72
73133;DHT22;61320;52.008;4.530;2023-04-07T11:47:38;12.57;73.02
73133;DHT22;61320;52.008;4.530;2023-04-07T11:50:05;12.60;72.88
73133;DHT22;61320;52.008;4.530;2023-04-07T11:52:46;12.64;71.79
73133;DHT22;61320;52.008;4.530;2023-04-07T11:55:22;12.69;72.00
73133;DHT22;61320;52.008;4.530;2023-04-07T11:57:51;12.70;69.94
73133;DHT22;61320;52.008;4.530;2023-04-07T12:00:17;12.63;71.52
73133;DHT22;61320;52.008;4.530;2023-04-07T12:02:43;12.63;71.83
73133;DHT22;61320;52.008;4.530;2023-04-07T12:05:09;12.63;71.58
73133;DHT22;61320;52.008;4.530;2023-04-07T12:07:36;12.64;70.80
73133;DHT22;61320;52.008;4.530;2023-04-07T12:10:19;12.63;70.71
73133;DHT22;61320;52.008;4.530;2023-04-07T12:12:46;12.70;72.05
73133;DHT22;61320;52.008;4.530;2023-04-07T12:15:12;12.79;71.39
73133;DHT22;61320;52.008;4.530;2023-04-07T12:17:44;12.91;71.53
73133;DHT22;61320;52.008;4.530;2023-04-07T12:20:11;12.99;70.41
73133;DHT22;61320;52.008;4.530;2023-04-07T12:22:36;13.03;70.06
73133;DHT22;61320;52.008;4.530;2023-04-07T12:25:02;13.03;68.87
73133;DHT22;61320;52.008;4.530;2023-04-07T12:27:27;13.04;68.01
73133;DHT22;61320;52.008;4.530;2023-04-07T12:29:53;13.06;70.45
73133;DHT22;61320;52.008;4.530;2023-04-07T12:32:18;13.07;69.37
73133;DHT22;61320;52.008;4.530;2023-04-07T12:34:44;13.08;69.68
73133;DHT22;61320;52.008;4.530;2023-04-07T12:37:09;13.08;70.05
73133;DHT22;61320;52.008;4.530;2023-04-07T12:39:35;13.07;70.59
73133;DHT22;61320;52.008;4.530;2023-04-07T12:42:00;13.10;69.49
73133;DHT22;61320;52.008;4.530;2023-04-07T12:44:25;13.15;69.12
73133;DHT22;61320;52.008;4.530;2023-04-07T12:46:51;13.17;68.89
73133;DHT22;61320;52.008;4.530;2023-04-07T12:49:17;13.18;69.00
73133;DHT22;61320;52.008;4.530;2023-04-07T12:51:43;13.12;68.35
73133;DHT22;61320;52.008;4.530;2023-04-07T12:54:08;13.11;68.44
73133;DHT22;61320;52.008;4.530;2023-04-07T12:56:34;13.07;68.16
73133;DHT22;61320;52.008;4.530;2023-04-07T12:59:00;13.01;67.99
73133;DHT22;61320;52.008;4.530;2023-04-07T13:01:26;13.04;69.09
73133;DHT22;61320;52.008;4.530;2023-04-07T13:03:51;13.07;69.37
73133;DHT22;61320;52.008;4.530;2023-04-07T13:06:17;13.04;68.35
73133;DHT22;61320;52.008;4.530;2023-04-07T13:08:43;13.00;68.62
73133;DHT22;61320;52.008;4.530;2023-04-07T13:11:08;13.00;69.54
73133;DHT22;61320;52.008;4.530;2023-04-07T13:13:34;13.00;68.70
73133;DHT22;61320;52.008;4.530;2023-04-07T13:16:00;12.93;68.50
73133;DHT22;61320;52.008;4.530;2023-04-07T13:18:26;12.96;69.14
73133;DHT22;61320;52.008;4.530;2023-04-07T13:20:52;12.91;69.37
73133;DHT22;61320;52.008;4.530;2023-04-07T13:23:18;12.96;68.55
73133;DHT22;61320;52.008;4.530;2023-04-07T13:25:46;12.96;68.35
73133;DHT22;61320;52.008;4.530;2023-04-07T13:28:11;12.91;69.32
73133;DHT22;61320;52.008;4.530;2023-04-07T13:30:38;12.86;70.08
73133;DHT22;61320;52.008;4.530;2023-04-07T13:33:04;12.80;69.65
73133;DHT22;61320;52.008;4.530;2023-04-07T13:35:29;12.77;69.96
73133;DHT22;61320;52.008;4.530;2023-04-07T13:38:02;12.72;69.60
73133;DHT22;61320;52.008;4.530;2023-04-07T13:40:28;12.69;70.72
73133;DHT22;61320;52.008;4.530;2023-04-07T13:42:54;12.70;70.97
73133;DHT22;61320;52.008;4.530;2023-04-07T13:45:19;12.73;71.52
73133;DHT22;61320;52.008;4.530;2023-04-07T13:47:45;12.67;69.92
73133;DHT22;61320;52.008;4.530;2023-04-07T13:50:14;12.63;70.12
73133;DHT22;61320;52.008;4.530;2023-04-07T13:52:40;12.60;70.39
73133;DHT22;61320;52.008;4.530;2023-04-07T13:55:06;12.59;69.64
73133;DHT22;61320;52.008;4.530;2023-04-07T13:57:32;12.55;70.40
73133;DHT22;61320;52.008;4.530;2023-04-07T13:59:58;12.46;71.07
73133;DHT22;61320;52.008;4.530;2023-04-07T14:02:25;12.42;70.87
73133;DHT22;61320;52.008;4.530;2023-04-07T14:04:52;12.46;71.50
73133;DHT22;61320;52.008;4.530;2023-04-07T14:07:18;12.56;72.10
73133;DHT22;61320;52.008;4.530;2023-04-07T14:09:43;12.57;72.29
73133;DHT22;61320;52.008;4.530;2023-04-07T14:12:10;12.55;70.31
73133;DHT22;61320;52.008;4.530;2023-04-07T14:14:36;12.53;70.82
73133;DHT22;61320;52.008;4.530;2023-04-07T14:17:02;12.53;70.08
73133;DHT22;61320;52.008;4.530;2023-04-07T14:19:28;12.52;70.07
73133;DHT22;61320;52.008;4.530;2023-04-07T14:21:54;12.55;70.57
73133;DHT22;61320;52.008;4.530;2023-04-07T14:24:20;12.52;71.12
73133;DHT22;61320;52.008;4.530;2023-04-07T14:26:46;12.53;70.88
73133;DHT22;61320;52.008;4.530;2023-04-07T14:29:12;12.57;70.37
73133;DHT22;61320;52.008;4.530;2023-04-07T14:31:38;12.60;70.56
73133;DHT22;61320;52.008;4.530;2023-04-07T14:34:03;12.55;69.71
73133;DHT22;61320;52.008;4.530;2023-04-07T14:36:29;12.50;70.58
73133;DHT22;61320;52.008;4.530;2023-04-07T14:38:56;12.49;70.31
73133;DHT22;61320;52.008;4.530;2023-04-07T14:41:22;12.49;70.25
73133;DHT22;61320;52.008;4.530;2023-04-07T14:43:48;12.52;70.25
73133;DHT22;61320;52.008;4.530;2023-04-07T14:46:20;12.55;69.59
73133;DHT22;61320;52.008;4.530;2023-04-07T14:48:45;12.52;70.05
73133;DHT22;61320;52.008;4.530;2023-04-07T14:51:12;12.48;70.18
73133;DHT22;61320;52.008;4.530;2023-04-07T14:53:39;12.50;70.30
73133;DHT22;61320;52.008;4.530;2023-04-07T14:56:06;12.50;69.90
73133;DHT22;61320;52.008;4.530;2023-04-07T14:58:33;12.52;69.77
73133;DHT22;61320;52.008;4.530;2023-04-07T15:01:01;12.57;69.99
73133;DHT22;61320;52.008;4.530;2023-04-07T15:03:27;12.63;70.53
73133;DHT22;61320;52.008;4.530;2023-04-07T15:05:52;12.70;70.13
73133;DHT22;61320;52.008;4.530;2023-04-07T15:08:18;12.69;69.80
73133;DHT22;61320;52.008;4.530;2023-04-07T15:10:43;12.63;69.13
73133;DHT22;61320;52.008;4.530;2023-04-07T15:13:09;12.59;69.81
73133;DHT22;61320;52.008;4.530;2023-04-07T15:15:34;12.60;69.17
73133;DHT22;61320;52.008;4.530;2023-04-07T15:18:00;12.57;69.53
73133;DHT22;61320;52.008;4.530;2023-04-07T15:20:25;12.53;70.22
73133;DHT22;61320;52.008;4.530;2023-04-07T15:22:51;12.55;69.65
73133;DHT22;61320;52.008;4.530;2023-04-07T15:25:16;12.59;69.03
73133;DHT22;61320;52.008;4.530;2023-04-07T15:27:42;12.60;70.85
73133;DHT22;61320;52.008;4.530;2023-04-07T15:30:07;12.59;70.28
73133;DHT22;61320;52.008;4.530;2023-04-07T15:32:33;12.53;69.88
73133;DHT22;61320;52.008;4.530;2023-04-07T15:34:58;12.52;69.15
73133;DHT22;61320;52.008;4.530;2023-04-07T15:37:24;12.48;70.19
73133;DHT22;61320;52.008;4.530;2023-04-07T15:39:50;12.43;70.05
73133;DHT22;61320;52.008;4.530;2023-04-07T15:42:15;12.41;69.41
73133;DHT22;61320;52.008;4.530;2023-04-07T15:44:41;12.35;70.62
73133;DHT22;61320;52.008;4.530;2023-04-07T15:47:06;12.31;70.02
73133;DHT22;61320;52.008;4.530;2023-04-07T15:49:33;12.33;70.68
73133;DHT22;61320;52.008;4.530;2023-04-07T15:52:03;12.31;69.92
73133;DHT22;61320;52.008;4.530;2023-04-07T15:54:29;12.26;70.89
73133;DHT22;61320;52.008;4.530;2023-04-07T15:56:55;12.31;71.05
73133;DHT22;61320;52.008;4.530;2023-04-07T15:59:21;12.33;71.08
73133;DHT22;61320;52.008;4.530;2023-04-07T16:01:46;12.35;69.27
73133;DHT22;61320;52.008;4.530;2023-04-07T16:04:12;12.29;69.64
73133;DHT22;61320;52.008;4.530;2023-04-07T16:06:38;12.31;70.65
73133;DHT22;61320;52.008;4.530;2023-04-07T16:09:03;12.31;70.50
73133;DHT22;61320;52.008;4.530;2023-04-07T16:11:29;12.31;69.83
73133;DHT22;61320;52.008;4.530;2023-04-07T16:13:55;12.32;70.32
73133;DHT22;61320;52.008;4.530;2023-04-07T16:16:20;12.28;70.52
73133;DHT22;61320;52.008;4.530;2023-04-07T16:18:46;12.26;70.30
73133;DHT22;61320;52.008;4.530;2023-04-07T16:21:12;12.28;71.06
73133;DHT22;61320;52.008;4.530;2023-04-07T16:23:38;12.32;70.88
73133;DHT22;61320;52.008;4.530;2023-04-07T16:26:03;12.28;69.78
73133;DHT22;61320;52.008;4.530;2023-04-07T16:28:29;12.25;69.49
73133;DHT22;61320;52.008;4.530;2023-04-07T16:30:55;12.22;70.35
73133;DHT22;61320;52.008;4.530;2023-04-07T16:33:20;12.20;70.93
73133;DHT22;61320;52.008;4.530;2023-04-07T16:35:48;12.21;70.11
73133;DHT22;61320;52.008;4.530;2023-04-07T16:38:13;12.20;70.59
73133;DHT22;61320;52.008;4.530;2023-04-07T16:40:40;12.17;70.53
73133;DHT22;61320;52.008;4.530;2023-04-07T16:43:08;12.11;70.87
73133;DHT22;61320;52.008;4.530;2023-04-07T16:45:33;12.18;70.43
73133;DHT22;61320;52.008;4.530;2023-04-07T16:48:00;12.21;70.64
73133;DHT22;61320;52.008;4.530;2023-04-07T16:50:26;12.11;70.08
73133;DHT22;61320;52.008;4.530;2023-04-07T16:52:51;12.11;69.63
73133;DHT22;61320;52.008;4.530;2023-04-07T16:55:17;12.05;70.12
73133;DHT22;61320;52.008;4.530;2023-04-07T16:57:43;12.02;70.42
73133;DHT22;61320;52.008;4.530;2023-04-07T17:00:09;12.01;69.78
73133;DHT22;61320;52.008;4.530;2023-04-07T17:02:34;11.97;71.00